sensor_id;sensor_type;location;lat;lon;timestamp;pressure;altitude;pressure_sealevel;temperature;humidity
82388;BME280;72027;47.420;9.310;2024-01-07T00:01:36;92582.06;;;-1.42;99.42
82388;BME280;72027;47.420;9.310;2024-01-07T00:04:05;92569.25;;;-1.41;99.02
82388;BME280;72027;47.420;9.310;2024-01-07T00:06:33;92580.47;;;-1.39;99.41
82388;BME280;72027;47.420;9.310;2024-01-07T00:09:00;92573.53;;;-1.40;99.77
82388;BME280;72027;47.420;9.310;2024-01-07T00:11:28;92568.09;;;-1.40;99.61
82388;BME280;72027;47.420;9.310;2024-01-07T00:13:56;92578.19;;;-1.41;99.39
82388;BME280;72027;47.420;9.310;2024-01-07T00:16:23;92576.25;;;-1.40;99.73
82388;BME280;72027;47.420;9.310;2024-01-07T00:18:51;92574.28;;;-1.40;99.64
82388;BME280;72027;47.420;9.310;2024-01-07T00:21:20;92574.69;;;-1.41;99.87
82388;BME280;72027;47.420;9.310;2024-01-07T00:23:48;92577.81;;;-1.43;99.08
82388;BME280;72027;47.420;9.310;2024-01-07T00:26:16;92575.09;;;-1.43;99.73
82388;BME280;72027;47.420;9.310;2024-01-07T00:28:44;92577.47;;;-1.45;100.00
82388;BME280;72027;47.420;9.310;2024-01-07T00:31:12;92583.66;;;-1.44;99.29
82388;BME280;72027;47.420;9.310;2024-01-07T00:33:40;92575.13;;;-1.46;99.33
82388;BME280;72027;47.420;9.310;2024-01-07T00:36:08;92577.53;;;-1.48;99.06
82388;BME280;72027;47.420;9.310;2024-01-07T00:38:37;92577.16;;;-1.50;99.89
82388;BME280;72027;47.420;9.310;2024-01-07T00:41:05;92582.59;;;-1.50;99.36
82388;BME280;72027;47.420;9.310;2024-01-07T00:43:33;92575.97;;;-1.49;99.41
82388;BME280;72027;47.420;9.310;2024-01-07T00:46:00;92589.16;;;-1.48;99.84
82388;BME280;72027;47.420;9.310;2024-01-07T00:48:28;92582.94;;;-1.48;99.48
82388;BME280;72027;47.420;9.310;2024-01-07T00:50:56;92583.72;;;-1.48;99.76
82388;BME280;72027;47.420;9.310;2024-01-07T00:53:24;92586.84;;;-1.49;100.00
82388;BME280;72027;47.420;9.310;2024-01-07T00:55:53;92587.63;;;-1.49;100.00
82388;BME280;72027;47.420;9.310;2024-01-07T00:58:21;92583.72;;;-1.48;99.49
82388;BME280;72027;47.420;9.310;2024-01-07T01:00:49;92581.75;;;-1.47;99.87
82388;BME280;72027;47.420;9.310;2024-01-07T01:03:17;92584.47;;;-1.47;99.78
82388;BME280;72027;47.420;9.310;2024-01-07T01:05:45;92588.38;;;-1.48;99.33
82388;BME280;72027;47.420;9.310;2024-01-07T01:08:13;92596.09;;;-1.47;99.73
82388;BME280;72027;47.420;9.310;2024-01-07T01:10:42;92595.34;;;-1.47;99.79
82388;BME280;72027;47.420;9.310;2024-01-07T01:13:11;92587.97;;;-1.47;100.00
82388;BME280;72027;47.420;9.310;2024-01-07T01:15:39;92586.84;;;-1.49;99.34
82388;BME280;72027;47.420;9.310;2024-01-07T01:18:07;92594.59;;;-1.48;99.74
82388;BME280;72027;47.420;9.310;2024-01-07T01:20:34;92595.34;;;-1.47;99.89
82388;BME280;72027;47.420;9.310;2024-01-07T01:23:02;92592.25;;;-1.49;99.83
82388;BME280;72027;47.420;9.310;2024-01-07T01:25:30;92592.25;;;-1.49;99.40
82388;BME280;72027;47.420;9.310;2024-01-07T01:27:58;92593.44;;;-1.50;99.89
82388;BME280;72027;47.420;9.310;2024-01-07T01:30:27;92599.66;;;-1.50;100.00
82388;BME280;72027;47.420;9.310;2024-01-07T01:32:58;92598.88;;;-1.50;99.72
82388;BME280;72027;47.420;9.310;2024-01-07T01:35:26;92593.84;;;-1.52;99.62
82388;BME280;72027;47.420;9.310;2024-01-07T01:37:54;92603.19;;;-1.53;99.91
82388;BME280;72027;47.420;9.310;2024-01-07T01:40:21;92600.88;;;-1.55;99.06
82388;BME280;72027;47.420;9.310;2024-01-07T01:42:49;92600.09;;;-1.55;99.22
82388;BME280;72027;47.420;9.310;2024-01-07T01:45:18;92600.88;;;-1.55;99.14
82388;BME280;72027;47.420;9.310;2024-01-07T01:47:48;92586.94;;;-1.57;99.47
82388;BME280;72027;47.420;9.310;2024-01-07T01:50:16;92595.09;;;-1.57;98.97
82388;BME280;72027;47.420;9.310;2024-01-07T01:52:45;92593.97;;;-1.59;99.80
82388;BME280;72027;47.420;9.310;2024-01-07T01:55:13;92608.69;;;-1.60;99.99
82388;BME280;72027;47.420;9.310;2024-01-07T01:57:43;92600.97;;;-1.62;99.84
82388;BME280;72027;47.420;9.310;2024-01-07T02:00:14;92600.97;;;-1.62;99.74
82388;BME280;72027;47.420;9.310;2024-01-07T02:02:41;92606.41;;;-1.62;99.36
82388;BME280;72027;47.420;9.310;2024-01-07T02:05:11;92604.84;;;-1.63;99.61
82388;BME280;72027;47.420;9.310;2024-01-07T02:07:41;92604.09;;;-1.63;99.48
82388;BME280;72027;47.420;9.310;2024-01-07T02:10:09;92607.56;;;-1.63;99.30
82388;BME280;72027;47.420;9.310;2024-01-07T02:12:37;92606.81;;;-1.63;99.96
82388;BME280;72027;47.420;9.310;2024-01-07T02:15:05;92601.38;;;-1.63;99.62
82388;BME280;72027;47.420;9.310;2024-01-07T02:17:33;92601.00;;;-1.65;99.43
82388;BME280;72027;47.420;9.310;2024-01-07T02:20:01;92599.84;;;-1.64;99.25
82388;BME280;72027;47.420;9.310;2024-01-07T02:22:30;92599.09;;;-1.65;99.73
82388;BME280;72027;47.420;9.310;2024-01-07T02:24:59;92594.44;;;-1.68;99.83
82388;BME280;72027;47.420;9.310;2024-01-07T02:27:27;92595.59;;;-1.65;99.45
82388;BME280;72027;47.420;9.310;2024-01-07T02:29:55;92599.47;;;-1.66;99.40
82388;BME280;72027;47.420;9.310;2024-01-07T02:32:23;92601.81;;;-1.65;99.68
82388;BME280;72027;47.420;9.310;2024-01-07T02:34:51;92603.38;;;-1.67;99.84
82388;BME280;72027;47.420;9.310;2024-01-07T02:37:19;92596.41;;;-1.68;100.00
82388;BME280;72027;47.420;9.310;2024-01-07T02:39:47;92596.41;;;-1.68;99.95
82388;BME280;72027;47.420;9.310;2024-01-07T02:42:22;92601.44;;;-1.67;99.64
82388;BME280;72027;47.420;9.310;2024-01-07T02:44:50;92601.06;;;-1.69;99.50
82388;BME280;72027;47.420;9.310;2024-01-07T02:47:18;92601.06;;;-1.69;99.69
82388;BME280;72027;47.420;9.310;2024-01-07T02:49:46;92601.84;;;-1.68;100.00
82388;BME280;72027;47.420;9.310;2024-01-07T02:52:14;92600.25;;;-1.66;100.00
82388;BME280;72027;47.420;9.310;2024-01-07T02:54:41;92596.38;;;-1.65;100.00
82388;BME280;72027;47.420;9.310;2024-01-07T02:57:09;92606.03;;;-1.64;99.84
82388;BME280;72027;47.420;9.310;2024-01-07T02:59:38;92600.63;;;-1.64;100.00
82388;BME280;72027;47.420;9.310;2024-01-07T03:02:06;92604.47;;;-1.61;100.00
82388;BME280;72027;47.420;9.310;2024-01-07T03:04:34;92601.81;;;-1.65;99.80
82388;BME280;72027;47.420;9.310;2024-01-07T03:07:01;92601.81;;;-1.65;99.74
82388;BME280;72027;47.420;9.310;2024-01-07T03:09:29;92596.41;;;-1.68;100.00
82388;BME280;72027;47.420;9.310;2024-01-07T03:11:57;92601.81;;;-1.65;99.66
82388;BME280;72027;47.420;9.310;2024-01-07T03:14:25;92600.66;;;-1.67;99.69
82388;BME280;72027;47.420;9.310;2024-01-07T03:16:54;92598.72;;;-1.67;100.00
82388;BME280;72027;47.420;9.310;2024-01-07T03:19:22;92597.53;;;-1.66;99.73
82388;BME280;72027;47.420;9.310;2024-01-07T03:21:50;92603.34;;;-1.64;100.00
82388;BME280;72027;47.420;9.310;2024-01-07T03:24:18;92599.09;;;-1.65;100.00
82388;BME280;72027;47.420;9.310;2024-01-07T03:26:46;92594.81;;;-1.66;100.00
82388;BME280;72027;47.420;9.310;2024-01-07T03:29:14;92605.28;;;-1.64;99.85
82388;BME280;72027;47.420;9.310;2024-01-07T03:31:41;92605.28;;;-1.64;100.00
82388;BME280;72027;47.420;9.310;2024-01-07T03:34:11;92604.53;;;-1.65;99.87
82388;BME280;72027;47.420;9.310;2024-01-07T03:36:38;92611.88;;;-1.65;100.00
82388;BME280;72027;47.420;9.310;2024-01-07T03:39:06;92611.53;;;-1.67;100.00
82388;BME280;72027;47.420;9.310;2024-01-07T03:41:35;92610.75;;;-1.68;99.77
82388;BME280;72027;47.420;9.310;2024-01-07T03:44:03;92608.03;;;-1.68;99.95
82388;BME280;72027;47.420;9.310;2024-01-07T03:46:30;92604.16;;;-1.67;100.00
82388;BME280;72027;47.420;9.310;2024-01-07T03:48:58;92604.91;;;-1.66;100.00
82388;BME280;72027;47.420;9.310;2024-01-07T03:51:28;92604.16;;;-1.67;99.81
82388;BME280;72027;47.420;9.310;2024-01-07T03:53:55;92612.66;;;-1.65;100.00
82388;BME280;72027;47.420;9.310;2024-01-07T03:56:23;92610.72;;;-1.64;99.98
82388;BME280;72027;47.420;9.310;2024-01-07T03:58:51;92608.75;;;-1.64;99.84
82388;BME280;72027;47.420;9.310;2024-01-07T04:01:19;92601.81;;;-1.65;100.00
82388;BME280;72027;47.420;9.310;2024-01-07T04:03:47;92606.81;;;-1.63;100.00
82388;BME280;72027;47.420;9.310;2024-01-07T04:06:15;92614.56;;;-1.62;100.00
82388;BME280;72027;47.420;9.310;2024-01-07T04:08:44;92620.38;;;-1.63;99.62
82388;BME280;72027;47.420;9.310;2024-01-07T04:11:12;92618.44;;;-1.63;100.00
82388;BME280;72027;47.420;9.310;2024-01-07T04:13:40;92615.31;;;-1.61;100.00
82388;BME280;72027;47.420;9.310;2024-01-07T04:16:15;92612.25;;;-1.63;100.00
82388;BME280;72027;47.420;9.310;2024-01-07T04:18:43;92614.19;;;-1.64;100.00
82388;BME280;72027;47.420;9.310;2024-01-07T04:21:13;92616.50;;;-1.62;100.00
82388;BME280;72027;47.420;9.310;2024-01-07T04:23:40;92615.72;;;-1.63;100.00
82388;BME280;72027;47.420;9.310;2024-01-07T04:26:09;92614.56;;;-1.62;100.00
82388;BME280;72027;47.420;9.310;2024-01-07T04:28:41;92615.31;;;-1.61;100.00
82388;BME280;72027;47.420;9.310;2024-01-07T04:31:09;92621.53;;;-1.61;100.00
82388;BME280;72027;47.420;9.310;2024-01-07T04:33:36;92621.13;;;-1.59;100.00
82388;BME280;72027;47.420;9.310;2024-01-07T04:36:05;92617.63;;;-1.60;99.97
82388;BME280;72027;47.420;9.310;2024-01-07T04:38:34;92619.56;;;-1.60;100.00
82388;BME280;72027;47.420;9.310;2024-01-07T04:41:02;92616.09;;;-1.61;100.00
82388;BME280;72027;47.420;9.310;2024-01-07T04:43:31;92615.69;;;-1.59;99.98
82388;BME280;72027;47.420;9.310;2024-01-07T04:45:59;92631.63;;;-1.61;100.00
82388;BME280;72027;47.420;9.310;2024-01-07T04:48:27;92625.44;;;-1.62;99.90
82388;BME280;72027;47.420;9.310;2024-01-07T04:50:55;92623.47;;;-1.61;99.91
82388;BME280;72027;47.420;9.310;2024-01-07T04:53:22;92625.75;;;-1.60;100.00
82388;BME280;72027;47.420;9.310;2024-01-07T04:55:51;92637.41;;;-1.59;100.00
82388;BME280;72027;47.420;9.310;2024-01-07T04:58:18;92632.75;;;-1.59;100.00
82388;BME280;72027;47.420;9.310;2024-01-07T05:00:48;92635.84;;;-1.57;100.00
82388;BME280;72027;47.420;9.310;2024-01-07T05:03:16;92637.38;;;-1.56;100.00
82388;BME280;72027;47.420;9.310;2024-01-07T05:05:44;92638.91;;;-1.55;100.00
82388;BME280;72027;47.420;9.310;2024-01-07T05:08:11;92633.47;;;-1.55;100.00
82388;BME280;72027;47.420;9.310;2024-01-07T05:10:39;92645.50;;;-1.56;100.00
82388;BME280;72027;47.420;9.310;2024-01-07T05:13:07;92648.22;;;-1.56;100.00
82388;BME280;72027;47.420;9.310;2024-01-07T05:15:35;92642.78;;;-1.56;100.00
82388;BME280;72027;47.420;9.310;2024-01-07T05:18:07;92640.09;;;-1.56;100.00
82388;BME280;72027;47.420;9.310;2024-01-07T05:20:35;92650.94;;;-1.56;100.00
82388;BME280;72027;47.420;9.310;2024-01-07T05:23:03;92652.13;;;-1.57;100.00
82388;BME280;72027;47.420;9.310;2024-01-07T05:25:30;92647.84;;;-1.58;99.77
82388;BME280;72027;47.420;9.310;2024-01-07T05:27:58;92652.91;;;-1.56;99.77
82388;BME280;72027;47.420;9.310;2024-01-07T05:30:26;92653.28;;;-1.58;100.00
82388;BME280;72027;47.420;9.310;2024-01-07T05:32:54;92656.00;;;-1.58;100.00
82388;BME280;72027;47.420;9.310;2024-01-07T05:35:23;92659.91;;;-1.59;100.00
82388;BME280;72027;47.420;9.310;2024-01-07T05:37:51;92659.16;;;-1.59;99.73
82388;BME280;72027;47.420;9.310;2024-01-07T05:40:19;92657.97;;;-1.58;100.00
82388;BME280;72027;47.420;9.310;2024-01-07T05:42:47;92652.94;;;-1.60;100.00
82388;BME280;72027;47.420;9.310;2024-01-07T05:45:15;92653.34;;;-1.61;100.00
82388;BME280;72027;47.420;9.310;2024-01-07T05:47:43;92657.59;;;-1.60;100.00
82388;BME280;72027;47.420;9.310;2024-01-07T05:50:11;92663.44;;;-1.62;100.00
82388;BME280;72027;47.420;9.310;2024-01-07T05:52:43;92666.16;;;-1.62;100.00
82388;BME280;72027;47.420;9.310;2024-01-07T05:55:11;92665.41;;;-1.62;99.96
82388;BME280;72027;47.420;9.310;2024-01-07T05:57:39;92663.06;;;-1.64;99.91
82388;BME280;72027;47.420;9.310;2024-01-07T06:00:08;92673.94;;;-1.64;100.00
82388;BME280;72027;47.420;9.310;2024-01-07T06:02:40;92677.03;;;-1.62;99.71
82388;BME280;72027;47.420;9.310;2024-01-07T06:05:08;92665.03;;;-1.64;100.00
82388;BME280;72027;47.420;9.310;2024-01-07T06:07:36;92666.97;;;-1.65;100.00
82388;BME280;72027;47.420;9.310;2024-01-07T06:10:06;92672.41;;;-1.65;100.00
82388;BME280;72027;47.420;9.310;2024-01-07T06:12:34;92673.19;;;-1.64;100.00
82388;BME280;72027;47.420;9.310;2024-01-07T06:15:02;92670.13;;;-1.70;100.00
82388;BME280;72027;47.420;9.310;2024-01-07T06:17:32;92684.88;;;-1.71;99.85
82388;BME280;72027;47.420;9.310;2024-01-07T06:19:59;92674.00;;;-1.71;100.00
82388;BME280;72027;47.420;9.310;2024-01-07T06:22:27;92678.31;;;-1.73;99.90
82388;BME280;72027;47.420;9.310;2024-01-07T06:24:55;92674.06;;;-1.74;99.98
82388;BME280;72027;47.420;9.310;2024-01-07T06:27:24;92677.22;;;-1.80;100.00
82388;BME280;72027;47.420;9.310;2024-01-07T06:29:52;92672.19;;;-1.81;100.00
82388;BME280;72027;47.420;9.310;2024-01-07T06:32:20;92678.81;;;-1.82;100.00
82388;BME280;72027;47.420;9.310;2024-01-07T06:34:48;92683.84;;;-1.81;100.00
82388;BME280;72027;47.420;9.310;2024-01-07T06:37:16;92684.59;;;-1.80;100.00
82388;BME280;72027;47.420;9.310;2024-01-07T06:39:43;92683.41;;;-1.79;100.00
82388;BME280;72027;47.420;9.310;2024-01-07T06:42:12;92685.38;;;-1.80;100.00
82388;BME280;72027;47.420;9.310;2024-01-07T06:44:41;92692.00;;;-1.81;100.00
82388;BME280;72027;47.420;9.310;2024-01-07T06:47:09;92688.09;;;-1.80;100.00
82388;BME280;72027;47.420;9.310;2024-01-07T06:49:37;92697.41;;;-1.81;100.00
82388;BME280;72027;47.420;9.310;2024-01-07T06:52:05;92698.19;;;-1.80;100.00
82388;BME280;72027;47.420;9.310;2024-01-07T06:54:33;92702.44;;;-1.79;100.00
82388;BME280;72027;47.420;9.310;2024-01-07T06:57:01;92702.44;;;-1.79;99.96
82388;BME280;72027;47.420;9.310;2024-01-07T06:59:30;92705.50;;;-1.77;100.00
82388;BME280;72027;47.420;9.310;2024-01-07T07:01:59;92700.84;;;-1.77;100.00
82388;BME280;72027;47.420;9.310;2024-01-07T07:04:27;92709.00;;;-1.77;100.00
82388;BME280;72027;47.420;9.310;2024-01-07T07:06:55;92703.94;;;-1.74;100.00
82388;BME280;72027;47.420;9.310;2024-01-07T07:09:24;92703.56;;;-1.77;100.00
82388;BME280;72027;47.420;9.310;2024-01-07T07:11:53;92707.03;;;-1.76;100.00
82388;BME280;72027;47.420;9.310;2024-01-07T07:14:21;92715.56;;;-1.74;100.00
82388;BME280;72027;47.420;9.310;2024-01-07T07:16:49;92711.66;;;-1.73;100.00
82388;BME280;72027;47.420;9.310;2024-01-07T07:19:19;92708.19;;;-1.73;100.00
82388;BME280;72027;47.420;9.310;2024-01-07T07:21:46;92719.81;;;-1.73;100.00
82388;BME280;72027;47.420;9.310;2024-01-07T07:24:14;92718.66;;;-1.72;100.00
82388;BME280;72027;47.420;9.310;2024-01-07T07:26:42;92724.44;;;-1.70;100.00
82388;BME280;72027;47.420;9.310;2024-01-07T07:29:10;92724.41;;;-1.66;100.00
82388;BME280;72027;47.420;9.310;2024-01-07T07:31:37;92725.53;;;-1.64;100.00
82388;BME280;72027;47.420;9.310;2024-01-07T07:34:10;92727.44;;;-1.61;100.00
82388;BME280;72027;47.420;9.310;2024-01-07T07:36:40;92725.09;;;-1.59;100.00
82388;BME280;72027;47.420;9.310;2024-01-07T07:39:09;92728.94;;;-1.56;100.00
82388;BME280;72027;47.420;9.310;2024-01-07T07:41:38;92727.38;;;-1.53;100.00
82388;BME280;72027;47.420;9.310;2024-01-07T07:44:07;92729.66;;;-1.52;100.00
82388;BME280;72027;47.420;9.310;2024-01-07T07:46:35;92733.50;;;-1.49;100.00
82388;BME280;72027;47.420;9.310;2024-01-07T07:49:02;92731.59;;;-1.49;100.00
82388;BME280;72027;47.420;9.310;2024-01-07T07:51:30;92736.22;;;-1.49;100.00
82388;BME280;72027;47.420;9.310;2024-01-07T07:54:00;92742.78;;;-1.47;100.00
82388;BME280;72027;47.420;9.310;2024-01-07T07:56:27;92736.97;;;-1.45;100.00
82388;BME280;72027;47.420;9.310;2024-01-07T07:58:55;92735.03;;;-1.45;99.82
82388;BME280;72027;47.420;9.310;2024-01-07T08:01:23;92737.69;;;-1.41;100.00
82388;BME280;72027;47.420;9.310;2024-01-07T08:03:51;92740.78;;;-1.39;99.93
82388;BME280;72027;47.420;9.310;2024-01-07T08:06:19;92745.03;;;-1.38;100.00
82388;BME280;72027;47.420;9.310;2024-01-07T08:08:48;92742.34;;;-1.38;100.00
82388;BME280;72027;47.420;9.310;2024-01-07T08:11:17;92753.53;;;-1.36;100.00
82388;BME280;72027;47.420;9.310;2024-01-07T08:13:45;92752.38;;;-1.35;100.00
82388;BME280;72027;47.420;9.310;2024-01-07T08:16:19;92746.53;;;-1.34;100.00
82388;BME280;72027;47.420;9.310;2024-01-07T08:18:47;92755.44;;;-1.33;99.90
82388;BME280;72027;47.420;9.310;2024-01-07T08:21:16;92765.91;;;-1.31;100.00
82388;BME280;72027;47.420;9.310;2024-01-07T08:23:44;92763.19;;;-1.31;100.00
82388;BME280;72027;47.420;9.310;2024-01-07T08:26:12;92757.00;;;-1.32;100.00
82388;BME280;72027;47.420;9.310;2024-01-07T08:28:42;92767.09;;;-1.33;100.00
82388;BME280;72027;47.420;9.310;2024-01-07T08:31:10;92762.06;;;-1.34;99.52
82388;BME280;72027;47.420;9.310;2024-01-07T08:33:38;92767.50;;;-1.34;99.33
82388;BME280;72027;47.420;9.310;2024-01-07T08:36:06;92767.50;;;-1.34;100.00
82388;BME280;72027;47.420;9.310;2024-01-07T08:38:34;92764.00;;;-1.35;100.00
82388;BME280;72027;47.420;9.310;2024-01-07T08:41:02;92760.88;;;-1.33;100.00
82388;BME280;72027;47.420;9.310;2024-01-07T08:43:31;92766.69;;;-1.31;99.49
82388;BME280;72027;47.420;9.310;2024-01-07T08:46:00;92767.44;;;-1.30;99.72
82388;BME280;72027;47.420;9.310;2024-01-07T08:48:28;92775.97;;;-1.28;99.55
82388;BME280;72027;47.420;9.310;2024-01-07T08:50:58;92774.38;;;-1.26;99.56
82388;BME280;72027;47.420;9.310;2024-01-07T08:53:26;92772.03;;;-1.24;99.36
82388;BME280;72027;47.420;9.310;2024-01-07T08:55:54;92767.31;;;-1.20;99.56
82388;BME280;72027;47.420;9.310;2024-01-07T08:58:22;92777.41;;;-1.17;98.72
82388;BME280;72027;47.420;9.310;2024-01-07T09:00:50;92780.06;;;-1.13;98.43
82388;BME280;72027;47.420;9.310;2024-01-07T09:03:19;92780.00;;;-1.09;99.01
82388;BME280;72027;47.420;9.310;2024-01-07T09:05:47;92779.63;;;-1.08;98.40
82388;BME280;72027;47.420;9.310;2024-01-07T09:08:15;92781.56;;;-1.08;98.88
82388;BME280;72027;47.420;9.310;2024-01-07T09:10:43;92792.44;;;-1.08;98.26
82388;BME280;72027;47.420;9.310;2024-01-07T09:13:11;92796.31;;;-1.09;98.17
82388;BME280;72027;47.420;9.310;2024-01-07T09:15:40;92788.97;;;-1.13;98.15
82388;BME280;72027;47.420;9.310;2024-01-07T09:18:12;92791.34;;;-1.15;98.52
82388;BME280;72027;47.420;9.310;2024-01-07T09:20:41;92795.59;;;-1.14;98.34
82388;BME280;72027;47.420;9.310;2024-01-07T09:23:09;92797.88;;;-1.08;97.97
82388;BME280;72027;47.420;9.310;2024-01-07T09:25:37;92799.41;;;-1.07;97.91
82388;BME280;72027;47.420;9.310;2024-01-07T09:28:05;92792.03;;;-1.07;98.21
82388;BME280;72027;47.420;9.310;2024-01-07T09:30:34;92810.66;;;-1.05;98.54
82388;BME280;72027;47.420;9.310;2024-01-07T09:33:06;92813.75;;;-1.07;98.52
82388;BME280;72027;47.420;9.310;2024-01-07T09:35:43;92806.38;;;-1.06;98.64
82388;BME280;72027;47.420;9.310;2024-01-07T09:38:11;92797.47;;;-1.07;98.52
82388;BME280;72027;47.420;9.310;2024-01-07T09:40:40;92809.84;;;-1.02;98.34
82388;BME280;72027;47.420;9.310;2024-01-07T09:43:09;92809.47;;;-1.04;98.16
82388;BME280;72027;47.420;9.310;2024-01-07T09:45:41;92808.66;;;-1.01;98.32
82388;BME280;72027;47.420;9.310;2024-01-07T09:48:11;92807.50;;;-1.00;98.07
82388;BME280;72027;47.420;9.310;2024-01-07T09:50:49;92809.47;;;-1.04;97.77
82388;BME280;72027;47.420;9.310;2024-01-07T09:53:25;92816.09;;;-1.05;98.44
82388;BME280;72027;47.420;9.310;2024-01-07T09:55:59;92810.28;;;-1.07;98.34
82388;BME280;72027;47.420;9.310;2024-01-07T09:58:32;92803.31;;;-1.08;98.64
82388;BME280;72027;47.420;9.310;2024-01-07T10:01:01;92806.78;;;-1.08;98.55
82388;BME280;72027;47.420;9.310;2024-01-07T10:03:33;92807.56;;;-1.07;97.99
82388;BME280;72027;47.420;9.310;2024-01-07T10:06:05;92807.56;;;-1.07;98.01
82388;BME280;72027;47.420;9.310;2024-01-07T10:08:36;92804.44;;;-1.06;98.17
82388;BME280;72027;47.420;9.310;2024-01-07T10:11:04;92802.06;;;-1.04;97.88
82388;BME280;72027;47.420;9.310;2024-01-07T10:13:32;92810.22;;;-1.04;98.74
82388;BME280;72027;47.420;9.310;2024-01-07T10:16:00;92808.66;;;-1.01;98.49
82388;BME280;72027;47.420;9.310;2024-01-07T10:18:30;92811.38;;;-1.01;98.49
82388;BME280;72027;47.420;9.310;2024-01-07T10:21:02;92803.22;;;-1.01;97.88
82388;BME280;72027;47.420;9.310;2024-01-07T10:23:31;92798.91;;;-0.99;98.81
82388;BME280;72027;47.420;9.310;2024-01-07T10:26:00;92800.09;;;-1.00;98.47
82388;BME280;72027;47.420;9.310;2024-01-07T10:28:33;92808.25;;;-1.00;98.12
82388;BME280;72027;47.420;9.310;2024-01-07T10:31:03;92804.34;;;-0.99;97.98
82388;BME280;72027;47.420;9.310;2024-01-07T10:33:32;92800.03;;;-0.96;98.40
82388;BME280;72027;47.420;9.310;2024-01-07T10:36:02;92798.44;;;-0.90;98.64
82388;BME280;72027;47.420;9.310;2024-01-07T10:38:31;92804.19;;;-0.84;97.89
82388;BME280;72027;47.420;9.310;2024-01-07T10:41:01;92800.22;;;-0.80;97.77
82388;BME280;72027;47.420;9.310;2024-01-07T10:43:30;92799.31;;;-0.70;98.35
82388;BME280;72027;47.420;9.310;2024-01-07T10:46:00;92789.94;;;-0.65;98.70
82388;BME280;72027;47.420;9.310;2024-01-07T10:48:31;92809.34;;;-0.63;97.67
82388;BME280;72027;47.420;9.310;2024-01-07T10:51:00;92803.13;;;-0.63;97.08
82388;BME280;72027;47.420;9.310;2024-01-07T10:53:34;92802.34;;;-0.64;97.54
82388;BME280;72027;47.420;9.310;2024-01-07T10:56:08;92806.63;;;-0.63;96.74
82388;BME280;72027;47.420;9.310;2024-01-07T10:58:40;92803.13;;;-0.63;97.51
82388;BME280;72027;47.420;9.310;2024-01-07T11:01:13;92791.88;;;-0.65;96.66
82388;BME280;72027;47.420;9.310;2024-01-07T11:03:46;92803.91;;;-0.63;97.50
82388;BME280;72027;47.420;9.310;2024-01-07T11:06:22;92803.13;;;-0.63;96.88
82388;BME280;72027;47.420;9.310;2024-01-07T11:08:59;92796.97;;;-0.68;96.49
82388;BME280;72027;47.420;9.310;2024-01-07T11:11:37;92795.44;;;-0.69;97.18
82388;BME280;72027;47.420;9.310;2024-01-07T11:14:33;92792.34;;;-0.71;96.08
82388;BME280;72027;47.420;9.310;2024-01-07T11:17:07;92793.56;;;-0.75;96.76
82388;BME280;72027;47.420;9.310;2024-01-07T11:19:36;92796.72;;;-0.77;96.54
82388;BME280;72027;47.420;9.310;2024-01-07T11:22:22;92788.94;;;-0.78;97.20
82388;BME280;72027;47.420;9.310;2024-01-07T11:24:51;92789.34;;;-0.80;96.75
82388;BME280;72027;47.420;9.310;2024-01-07T11:27:29;92790.16;;;-0.83;97.49
82388;BME280;72027;47.420;9.310;2024-01-07T11:30:19;92785.09;;;-0.81;97.39
82388;BME280;72027;47.420;9.310;2024-01-07T11:32:47;92789.34;;;-0.80;97.28
82388;BME280;72027;47.420;9.310;2024-01-07T11:35:21;92783.13;;;-0.80;97.27
82388;BME280;72027;47.420;9.310;2024-01-07T11:38:09;92780.41;;;-0.80;96.78
82388;BME280;72027;47.420;9.310;2024-01-07T11:40:37;92776.56;;;-0.83;96.38
82388;BME280;72027;47.420;9.310;2024-01-07T11:43:08;92778.47;;;-0.80;97.27
82388;BME280;72027;47.420;9.310;2024-01-07T11:45:37;92783.09;;;-0.77;96.51
82388;BME280;72027;47.420;9.310;2024-01-07T11:48:05;92783.09;;;-0.77;97.12
82388;BME280;72027;47.420;9.310;2024-01-07T11:50:35;92784.63;;;-0.76;97.01
82388;BME280;72027;47.420;9.310;2024-01-07T11:53:03;92780.78;;;-0.78;96.89
82388;BME280;72027;47.420;9.310;2024-01-07T11:55:32;92787.75;;;-0.77;96.29
82388;BME280;72027;47.420;9.310;2024-01-07T11:58:02;92785.47;;;-0.79;96.35
82388;BME280;72027;47.420;9.310;2024-01-07T12:00:33;92789.34;;;-0.80;96.93
82388;BME280;72027;47.420;9.310;2024-01-07T12:03:01;92784.72;;;-0.83;96.86
82388;BME280;72027;47.420;9.310;2024-01-07T12:05:29;92790.97;;;-0.86;96.78
82388;BME280;72027;47.420;9.310;2024-01-07T12:07:59;92787.88;;;-0.84;97.30
82388;BME280;72027;47.420;9.310;2024-01-07T12:10:27;92783.19;;;-0.84;96.78
82388;BME280;72027;47.420;9.310;2024-01-07T12:12:56;92789.41;;;-0.83;97.02
82388;BME280;72027;47.420;9.310;2024-01-07T12:15:24;92786.31;;;-0.85;96.81
82388;BME280;72027;47.420;9.310;2024-01-07T12:17:57;92789.44;;;-0.87;96.60
82388;BME280;72027;47.420;9.310;2024-01-07T12:20:27;92791.81;;;-0.89;96.04
82388;BME280;72027;47.420;9.310;2024-01-07T12:22:56;92781.69;;;-0.89;95.80
82388;BME280;72027;47.420;9.310;2024-01-07T12:25:25;92789.16;;;-0.96;95.49
82388;BME280;72027;47.420;9.310;2024-01-07T12:27:53;92784.91;;;-0.97;96.57
82388;BME280;72027;47.420;9.310;2024-01-07T12:30:24;92788.41;;;-0.97;96.95
82388;BME280;72027;47.420;9.310;2024-01-07T12:32:52;92782.25;;;-1.01;96.48
82388;BME280;72027;47.420;9.310;2024-01-07T12:35:25;92793.91;;;-1.04;96.70
82388;BME280;72027;47.420;9.310;2024-01-07T12:37:53;92785.75;;;-1.04;97.18
82388;BME280;72027;47.420;9.310;2024-01-07T12:40:22;92787.72;;;-1.04;96.66
82388;BME280;72027;47.420;9.310;2024-01-07T12:42:51;92792.78;;;-1.06;97.61
82388;BME280;72027;47.420;9.310;2024-01-07T12:45:19;92794.72;;;-1.03;97.63
82388;BME280;72027;47.420;9.310;2024-01-07T12:47:47;92797.44;;;-1.03;97.11
82388;BME280;72027;47.420;9.310;2024-01-07T12:50:15;92798.56;;;-1.01;97.07
82388;BME280;72027;47.420;9.310;2024-01-07T12:52:45;92801.69;;;-1.02;97.61
82388;BME280;72027;47.420;9.310;2024-01-07T12:55:15;92804.75;;;-1.00;97.30
82388;BME280;72027;47.420;9.310;2024-01-07T12:57:44;92796.97;;;-0.98;96.40
82388;BME280;72027;47.420;9.310;2024-01-07T13:00:12;92805.94;;;-1.01;96.84
82388;BME280;72027;47.420;9.310;2024-01-07T13:02:51;92803.25;;;-1.05;96.44
82388;BME280;72027;47.420;9.310;2024-01-07T13:05:24;92799.78;;;-1.05;96.38
82388;BME280;72027;47.420;9.310;2024-01-07T13:07:54;92809.88;;;-1.06;96.93